createdAt,value
2015-05-23T00:00:17.742Z,96012
2015-05-23T00:00:36.275Z,96015
2015-05-23T00:00:54.713Z,96018
2015-05-23T00:01:13.260Z,96021
2015-05-23T00:01:31.713Z,96012
2015-05-23T00:01:50.200Z,96012
2015-05-23T00:02:08.622Z,96012
2015-05-23T00:02:27.044Z,96012
2015-05-23T00:02:45.640Z,96018
2015-05-23T00:03:04.046Z,96027
2015-05-23T00:03:22.468Z,96012
2015-05-23T00:03:40.858Z,96007
2015-05-23T00:03:59.267Z,96013
2015-05-23T00:04:17.657Z,96018
2015-05-23T00:04:36.063Z,96013
2015-05-23T00:04:54.504Z,96016
2015-05-23T00:05:12.770Z,96004
2015-05-23T00:05:31.395Z,96019
2015-05-23T00:05:49.865Z,96013
2015-05-23T00:06:08.412Z,96016
2015-05-23T00:06:26.834Z,96013
2015-05-23T00:06:45.318Z,96010
2015-05-23T00:07:03.743Z,96016
2015-05-23T00:07:22.462Z,96021
2015-05-23T00:07:40.931Z,96016
2015-05-23T00:07:59.324Z,96015
2015-05-23T00:08:17.934Z,96018
2015-05-23T00:08:36.309Z,96010
2015-05-23T00:08:54.824Z,96010
2015-05-23T00:09:13.858Z,96021
2015-05-23T00:09:32.264Z,96016
2015-05-23T00:09:50.655Z,96016
2015-05-23T00:10:09.141Z,96013
2015-05-23T00:10:27.547Z,96013
2015-05-23T00:10:46.172Z,96016
2015-05-23T00:11:04.799Z,96019
2015-05-23T00:11:23.237Z,96016
2015-05-23T00:11:41.627Z,96016
2015-05-23T00:12:00.143Z,96010
2015-05-23T00:12:18.646Z,96004
2015-05-23T00:12:37.052Z,96004
2015-05-23T00:12:55.458Z,96007
2015-05-23T00:13:13.898Z,96007
2015-05-23T00:13:32.460Z,96015
2015-05-23T00:13:50.820Z,95998
2015-05-23T00:14:09.292Z,96004
2015-05-23T00:14:27.760Z,96013
2015-05-23T00:14:46.276Z,96007
2015-05-23T00:15:04.715Z,96012
2015-05-23T00:15:23.294Z,96012
2015-05-23T00:15:41.872Z,96010
2015-05-23T00:16:00.419Z,95998
2015-05-23T00:16:18.828Z,96012
2015-05-23T00:16:37.359Z,96007
2015-05-23T00:16:55.812Z,96012
2015-05-23T00:17:14.267Z,96001
2015-05-23T00:17:32.705Z,96010
2015-05-23T00:17:51.111Z,96015
2015-05-23T00:18:09.488Z,96004
2015-05-23T00:18:27.910Z,96012
2015-05-23T00:18:46.316Z,96010
2015-05-23T00:19:04.769Z,96015
2015-05-23T00:19:23.428Z,96007
2015-05-23T00:19:41.896Z,96007
2015-05-23T00:20:00.381Z,96013
2015-05-23T00:20:18.774Z,96013
2015-05-23T00:20:37.259Z,96004
2015-05-23T00:20:55.665Z,96010
2015-05-23T00:21:14.090Z,96016
2015-05-23T00:21:32.465Z,96019
2015-05-23T00:21:51.184Z,96002
2015-05-23T00:22:09.574Z,95996
2015-05-23T00:22:27.981Z,96010
2015-05-23T00:22:46.544Z,96007
2015-05-23T00:23:05.044Z,96007
2015-05-23T00:23:23.672Z,96001
2015-05-23T00:23:42.250Z,95998
2015-05-23T00:24:00.672Z,96004
2015-05-23T00:24:19.158Z,96001
2015-05-23T00:24:37.658Z,96001
2015-05-23T00:24:56.268Z,96001
2015-05-23T00:25:14.783Z,95992
2015-05-23T00:25:33.176Z,95998
2015-05-23T00:25:51.613Z,95989
2015-05-23T00:26:09.738Z,96001
2015-05-23T00:26:28.101Z,95995
2015-05-23T00:26:46.382Z,96004
2015-05-23T00:27:04.820Z,95998
2015-05-23T00:27:23.384Z,95995
2015-05-23T00:27:41.790Z,96004
2015-05-23T00:28:00.181Z,95993
2015-05-23T00:28:18.837Z,95990
2015-05-23T00:28:37.386Z,95999
2015-05-23T00:28:55.808Z,95996
2015-05-23T00:29:14.199Z,95996
2015-05-23T00:29:32.702Z,95996
2015-05-23T00:29:51.155Z,95987
2015-05-23T00:30:09.702Z,95996
2015-05-23T00:30:28.110Z,95996
2015-05-23T00:30:46.563Z,95990
2015-05-23T00:31:04.938Z,95996
2015-05-23T00:31:23.454Z,95988
2015-05-23T00:31:41.940Z,95996
2015-05-23T00:32:00.315Z,95988
2015-05-23T00:32:18.706Z,95988
2015-05-23T00:32:37.272Z,95996
2015-05-23T00:32:55.663Z,95990
2015-05-23T00:33:14.069Z,95985
2015-05-23T00:33:32.460Z,95990
2015-05-23T00:33:50.852Z,95999
2015-05-23T00:34:09.243Z,95990
2015-05-23T00:34:27.633Z,95985
2015-05-23T00:34:46.042Z,95988
2015-05-23T00:35:04.417Z,95991
2015-05-23T00:35:22.917Z,95994
2015-05-23T00:35:41.370Z,95988
2015-05-23T00:35:59.748Z,95994
2015-05-23T00:36:18.138Z,95988
2015-05-23T00:36:36.545Z,95980
2015-05-23T00:36:54.297Z,95991
2015-05-23T00:37:12.687Z,95991
2015-05-23T00:37:31.078Z,95985
2015-05-23T00:37:49.469Z,95986
2015-05-23T00:38:07.205Z,95977
2015-05-23T00:38:25.596Z,95988
2015-05-23T00:38:43.986Z,95985
2015-05-23T00:39:02.364Z,95983
2015-05-23T00:39:20.145Z,95985
2015-05-23T00:39:38.677Z,95985
2015-05-23T00:39:57.067Z,95977
2015-05-23T00:40:15.461Z,95980
2015-05-23T00:40:33.852Z,95977
2015-05-23T00:40:52.273Z,95974
2015-05-23T00:41:10.713Z,95977
2015-05-23T00:41:29.119Z,95974
2015-05-23T00:41:47.494Z,95980
2015-05-23T00:42:05.900Z,95971
2015-05-23T00:42:24.278Z,95979
2015-05-23T00:42:42.653Z,95980
2015-05-23T00:43:01.060Z,95974
2015-05-23T00:43:19.437Z,95971
2015-05-23T00:43:37.843Z,95980
2015-05-23T00:43:56.234Z,95972
2015-05-23T00:44:15.236Z,95975
2015-05-23T00:44:35.579Z,95964
2015-05-23T00:44:53.954Z,95978
2015-05-23T00:45:12.345Z,95978
2015-05-23T00:45:30.739Z,95975
2015-05-23T00:45:49.114Z,95972
2015-05-23T00:46:07.504Z,95978
2015-05-23T00:46:25.881Z,95983
2015-05-23T00:46:44.272Z,95983
2015-05-23T00:47:02.522Z,95981
2015-05-23T00:47:20.930Z,95978
2015-05-23T00:47:39.321Z,95975
2015-05-23T00:47:57.696Z,95975
2015-05-23T00:48:16.102Z,95984
2015-05-23T00:48:34.510Z,95983
2015-05-23T00:48:52.901Z,95978
2015-05-23T00:49:11.291Z,95983
2015-05-23T00:49:29.716Z,95964
2015-05-23T00:49:48.091Z,95975
2015-05-23T00:50:06.544Z,95978
2015-05-23T00:50:24.906Z,95981
2015-05-23T00:50:43.296Z,95972
2015-05-23T00:51:01.671Z,95967
2015-05-23T00:51:20.078Z,95975
2015-05-23T00:51:38.471Z,95978
2015-05-23T00:51:56.846Z,95978
2015-05-23T00:52:15.253Z,95984
2015-05-23T00:52:33.645Z,95967
2015-05-23T00:52:52.036Z,95965
2015-05-23T00:53:10.442Z,95956
2015-05-23T00:53:28.835Z,95972
2015-05-23T00:53:47.241Z,95959
2015-05-23T00:54:05.632Z,95972
2015-05-23T00:54:24.040Z,95970
2015-05-23T00:54:42.415Z,95962
2015-05-23T00:55:00.805Z,95975
2015-05-23T00:55:19.196Z,95959
2015-05-23T00:55:37.637Z,95970
2015-05-23T00:55:56.043Z,95965
2015-05-23T00:56:14.449Z,95976
2015-05-23T00:56:32.857Z,95965
2015-05-23T00:56:51.217Z,95962
2015-05-23T00:57:09.607Z,95965
2015-05-23T00:57:28.000Z,95965
2015-05-23T00:57:46.391Z,95962
2015-05-23T00:58:04.781Z,95973
2015-05-23T00:58:23.187Z,95970
2015-05-23T00:58:41.580Z,95973
2015-05-23T00:58:59.986Z,95973
2015-05-23T00:59:18.377Z,95959
2015-05-23T00:59:36.786Z,95973
2015-05-23T00:59:55.192Z,95973
2015-05-23T01:00:13.583Z,95965
2015-05-23T01:00:31.977Z,95970
2015-05-23T01:00:50.367Z,95965
2015-05-23T01:01:08.774Z,95962
2015-05-23T01:01:27.164Z,95970
2015-05-23T01:01:45.557Z,95973
2015-05-23T01:02:03.947Z,95960
2015-05-23T01:02:22.338Z,95970
2015-05-23T01:02:40.746Z,95960
2015-05-23T01:02:59.153Z,95963
2015-05-23T01:03:17.543Z,95970
2015-05-23T01:03:35.937Z,95971
2015-05-23T01:03:54.327Z,95960
2015-05-23T01:04:12.718Z,95973
2015-05-23T01:04:31.109Z,95973
2015-05-23T01:04:49.501Z,95966
2015-05-23T01:05:07.876Z,95963
2015-05-23T01:05:26.267Z,95960
2015-05-23T01:05:44.660Z,95954
2015-05-23T01:06:03.066Z,95957
2015-05-23T01:06:21.441Z,95954
2015-05-23T01:06:39.850Z,95963
2015-05-23T01:06:58.241Z,95960
2015-05-23T01:07:16.616Z,95957
2015-05-23T01:07:35.006Z,95957
2015-05-23T01:07:53.399Z,95960
2015-05-23T01:08:11.149Z,95957
2015-05-23T01:08:29.524Z,95963
2015-05-23T01:08:47.917Z,95963
2015-05-23T01:09:06.323Z,95960
2015-05-23T01:09:24.713Z,95960
2015-05-23T01:09:43.122Z,95957
2015-05-23T01:10:01.528Z,95960
2015-05-23T01:10:19.934Z,95960
2015-05-23T01:10:38.325Z,95960
2015-05-23T01:10:56.078Z,95960
2015-05-23T01:11:14.468Z,95955
2015-05-23T01:11:32.875Z,95957
2015-05-23T01:11:51.283Z,95971
2015-05-23T01:12:09.017Z,95952
2015-05-23T01:12:27.408Z,95958
2015-05-23T01:12:45.802Z,95952
2015-05-23T01:13:04.192Z,95946
2015-05-23T01:13:22.442Z,95952
2015-05-23T01:13:40.848Z,95952
2015-05-23T01:13:59.225Z,95961
2015-05-23T01:14:17.632Z,95950
2015-05-23T01:14:36.022Z,95955
2015-05-23T01:14:54.431Z,95961
2015-05-23T01:15:12.837Z,95952
2015-05-23T01:15:31.243Z,95964
2015-05-23T01:15:49.636Z,95958
2015-05-23T01:16:08.042Z,95964
2015-05-23T01:16:26.433Z,95964
2015-05-23T01:16:44.823Z,95950
2015-05-23T01:17:03.232Z,95961
2015-05-23T01:17:21.607Z,95958
2015-05-23T01:17:39.998Z,95955
2015-05-23T01:17:57.735Z,95961
2015-05-23T01:18:16.189Z,95967
2015-05-23T01:18:34.595Z,95974
2015-05-23T01:18:53.003Z,95955
2015-05-23T01:19:11.425Z,95964
2015-05-23T01:19:29.847Z,95964
2015-05-23T01:19:48.222Z,95967
2015-05-23T01:20:06.599Z,95964
2015-05-23T01:20:25.021Z,95958
2015-05-23T01:20:43.599Z,95958
2015-05-23T01:21:02.024Z,95961
2015-05-23T01:21:20.602Z,95964
2015-05-23T01:21:39.024Z,95964
2015-05-23T01:21:57.510Z,95971
2015-05-23T01:22:16.104Z,95961
2015-05-23T01:22:34.494Z,95964
2015-05-23T01:22:52.948Z,95958
2015-05-23T01:23:11.450Z,95955
2015-05-23T01:23:30.262Z,95961
2015-05-23T01:23:48.731Z,95964
2015-05-23T01:24:07.328Z,95949
2015-05-23T01:24:25.906Z,95955
2015-05-23T01:24:44.421Z,95964
2015-05-23T01:25:03.126Z,95950
2015-05-23T01:25:21.533Z,95950
2015-05-23T01:25:40.017Z,95955
2015-05-23T01:25:58.595Z,95958
2015-05-23T01:26:16.347Z,95964
2015-05-23T01:26:34.738Z,95961
2015-05-23T01:26:53.207Z,95953
2015-05-23T01:27:11.584Z,95953
2015-05-23T01:27:30.130Z,95950
2015-05-23T01:27:48.693Z,95953
2015-05-23T01:28:07.243Z,95939
2015-05-23T01:28:25.727Z,95950
2015-05-23T01:28:44.180Z,95953
2015-05-23T01:29:02.962Z,95944
2015-05-23T01:29:21.746Z,95947
2015-05-23T01:29:40.136Z,95953
2015-05-23T01:29:58.527Z,95956
2015-05-23T01:30:16.998Z,95951
2015-05-23T01:30:35.388Z,95948
2015-05-23T01:30:53.842Z,95951
2015-05-23T01:31:12.232Z,95959
2015-05-23T01:31:30.687Z,95945
2015-05-23T01:31:49.125Z,95943
2015-05-23T01:32:07.515Z,95951
2015-05-23T01:32:26.081Z,95943
2015-05-23T01:32:44.722Z,95948
2015-05-23T01:33:03.268Z,95945
2015-05-23T01:33:21.865Z,95948
2015-05-23T01:33:40.428Z,95951
2015-05-23T01:33:58.881Z,95948
2015-05-23T01:34:17.662Z,95948
2015-05-23T01:34:36.055Z,95940
2015-05-23T01:34:54.555Z,95946
2015-05-23T01:35:12.945Z,95954
2015-05-23T01:35:31.338Z,95948
2015-05-23T01:35:49.775Z,95937
2015-05-23T01:36:08.244Z,95937
2015-05-23T01:36:26.715Z,95948
2015-05-23T01:36:45.215Z,95943
2015-05-23T01:37:03.590Z,95940
2015-05-23T01:37:22.093Z,95943
2015-05-23T01:37:40.780Z,95948
2015-05-23T01:37:59.421Z,95937
2015-05-23T01:38:17.796Z,95943
2015-05-23T01:38:36.329Z,95943
2015-05-23T01:38:54.767Z,95949
2015-05-23T01:39:13.298Z,95935
2015-05-23T01:39:31.692Z,95940
2015-05-23T01:39:50.129Z,95940
2015-05-23T01:40:08.598Z,95938
2015-05-23T01:40:27.037Z,95941
2015-05-23T01:40:45.678Z,95941
2015-05-23T01:41:04.053Z,95938
2015-05-23T01:41:22.428Z,95938
2015-05-23T01:41:40.821Z,95933
2015-05-23T01:41:59.305Z,95939
2015-05-23T01:42:17.946Z,95941
2015-05-23T01:42:36.338Z,95942
2015-05-23T01:42:55.088Z,95936
2015-05-23T01:43:13.729Z,95939
2015-05-23T01:43:32.247Z,95942
2015-05-23T01:43:50.731Z,95945
2015-05-23T01:44:09.325Z,95945
2015-05-23T01:44:27.731Z,95936
2015-05-23T01:44:46.125Z,95942
2015-05-23T01:45:04.515Z,95928
2015-05-23T01:45:22.921Z,95942
2015-05-23T01:45:41.455Z,95937
2015-05-23T01:45:59.892Z,95937
2015-05-23T01:46:18.595Z,95931
2015-05-23T01:46:36.989Z,95937
2015-05-23T01:46:55.442Z,95931
2015-05-23T01:47:14.020Z,95928
2015-05-23T01:47:32.442Z,95929
2015-05-23T01:47:50.819Z,95929
2015-05-23T01:48:09.210Z,95937
2015-05-23T01:48:27.663Z,95929
2015-05-23T01:48:46.055Z,95929
2015-05-23T01:49:04.509Z,95926
2015-05-23T01:49:22.946Z,95929
2015-05-23T01:49:41.324Z,95918
2015-05-23T01:49:59.746Z,95923
2015-05-23T01:50:18.137Z,95923
2015-05-23T01:50:36.574Z,95916
2015-05-23T01:50:55.060Z,95926
2015-05-23T01:51:13.607Z,95920
2015-05-23T01:51:32.014Z,95926
2015-05-23T01:51:50.453Z,95923
2015-05-23T01:52:08.859Z,95924
2015-05-23T01:52:27.406Z,95932
2015-05-23T01:52:45.847Z,95926
2015-05-23T01:53:04.222Z,95924
2015-05-23T01:53:22.597Z,95924
2015-05-23T01:53:41.003Z,95929
2015-05-23T01:53:59.427Z,95924
2015-05-23T01:54:17.833Z,95935
2015-05-23T01:54:36.302Z,95921
2015-05-23T01:54:54.680Z,95924
2015-05-23T01:55:13.242Z,95924
2015-05-23T01:55:31.633Z,95930
2015-05-23T01:55:50.008Z,95924
2015-05-23T01:56:08.385Z,95921
2015-05-23T01:56:26.744Z,95916
2015-05-23T01:56:45.244Z,95924
2015-05-23T01:57:03.622Z,95919
2015-05-23T01:57:22.138Z,95922
2015-05-23T01:57:40.529Z,95914
2015-05-23T01:57:59.044Z,95922
2015-05-23T01:58:17.484Z,95919
2015-05-23T01:58:36.046Z,95922
2015-05-23T01:58:54.640Z,95916
2015-05-23T01:59:13.018Z,95922
2015-05-23T01:59:31.393Z,95919
2015-05-23T01:59:50.049Z,95922
2015-05-23T02:00:08.473Z,95915
2015-05-23T02:00:27.051Z,95919
2015-05-23T02:00:45.598Z,95917
2015-05-23T02:01:04.020Z,95922
2015-05-23T02:01:22.397Z,95919
2015-05-23T02:01:40.913Z,95917
2015-05-23T02:01:59.303Z,95917
2015-05-23T02:02:17.962Z,95917
2015-05-23T02:02:36.400Z,95923
2015-05-23T02:02:54.806Z,95923
2015-05-23T02:03:13.431Z,95920
2015-05-23T02:03:31.996Z,95923
2015-05-23T02:03:50.402Z,95917
2015-05-23T02:04:08.933Z,95915
2015-05-23T02:04:27.310Z,95904
2015-05-23T02:04:45.826Z,95923
2015-05-23T02:05:04.279Z,95920
2015-05-23T02:05:22.657Z,95915
2015-05-23T02:05:41.266Z,95917
2015-05-23T02:05:59.657Z,95915
2015-05-23T02:06:18.110Z,95913
2015-05-23T02:06:36.721Z,95907
2015-05-23T02:06:55.128Z,95910
2015-05-23T02:07:13.753Z,95913
2015-05-23T02:07:32.302Z,95907
2015-05-23T02:07:50.708Z,95916
2015-05-23T02:08:09.161Z,95910
2015-05-23T02:08:27.726Z,95904
2015-05-23T02:08:46.351Z,95910
2015-05-23T02:09:04.898Z,95910
2015-05-23T02:09:23.448Z,95890
2015-05-23T02:09:41.933Z,95910
2015-05-23T02:10:00.339Z,95907
2015-05-23T02:10:18.823Z,95910
2015-05-23T02:10:37.263Z,95910
2015-05-23T02:10:55.872Z,95913
2015-05-23T02:11:14.294Z,95905
2015-05-23T02:11:32.687Z,95908
2015-05-23T02:11:51.093Z,95899
2015-05-23T02:12:09.702Z,95908
2015-05-23T02:12:28.096Z,95908
2015-05-23T02:12:46.596Z,95914
2015-05-23T02:13:04.971Z,95899
2015-05-23T02:13:23.346Z,95899
2015-05-23T02:13:41.770Z,95905
2015-05-23T02:14:00.332Z,95905
2015-05-23T02:14:18.770Z,95894
2015-05-23T02:14:37.194Z,95900
2015-05-23T02:14:55.725Z,95900
2015-05-23T02:15:14.131Z,95897
2015-05-23T02:15:32.649Z,95903
2015-05-23T02:15:51.024Z,95894
2015-05-23T02:16:09.446Z,95900
2015-05-23T02:16:27.821Z,95892
2015-05-23T02:16:46.527Z,95897
2015-05-23T02:17:04.995Z,95894
2015-05-23T02:17:23.417Z,95895
2015-05-23T02:17:42.060Z,95897
2015-05-23T02:18:00.607Z,95892
2015-05-23T02:18:19.091Z,95897
2015-05-23T02:18:37.687Z,95903
2015-05-23T02:18:56.093Z,95892
2015-05-23T02:19:14.578Z,95892
2015-05-23T02:19:32.984Z,95900
2015-05-23T02:19:51.534Z,95895
2015-05-23T02:20:10.174Z,95892
2015-05-23T02:20:29.081Z,95889
2015-05-23T02:20:47.459Z,95895
2015-05-23T02:21:05.880Z,95898
2015-05-23T02:21:24.380Z,95895
2015-05-23T02:21:42.882Z,95898
2015-05-23T02:22:01.382Z,95898
2015-05-23T02:22:19.867Z,95898
2015-05-23T02:22:38.476Z,95892
2015-05-23T02:22:56.869Z,95904
2015-05-23T02:23:15.400Z,95904
2015-05-23T02:23:33.884Z,95898
2015-05-23T02:23:52.293Z,95892
2015-05-23T02:24:10.730Z,95893
2015-05-23T02:24:29.199Z,95895
2015-05-23T02:24:47.621Z,95895
2015-05-23T02:25:06.030Z,95895
2015-05-23T02:25:24.405Z,95895
2015-05-23T02:25:42.874Z,95893
2015-05-23T02:26:01.314Z,95901
2015-05-23T02:26:20.002Z,95910
2015-05-23T02:26:38.486Z,95898
2015-05-23T02:26:57.223Z,95893
2015-05-23T02:27:14.973Z,95904
2015-05-23T02:27:33.348Z,95898
2015-05-23T02:27:51.723Z,95893
2015-05-23T02:28:10.147Z,95904
2015-05-23T02:28:28.554Z,95901
2015-05-23T02:28:47.147Z,95910
2015-05-23T02:29:05.727Z,95893
2015-05-23T02:29:24.148Z,95898
2015-05-23T02:29:42.633Z,95904
2015-05-23T02:30:01.148Z,95899
2015-05-23T02:30:19.605Z,95899
2015-05-23T02:30:38.026Z,95901
2015-05-23T02:30:56.464Z,95904
2015-05-23T02:31:14.935Z,95904
2015-05-23T02:31:33.372Z,95902
2015-05-23T02:31:51.825Z,95902
2015-05-23T02:32:10.325Z,95899
2015-05-23T02:32:28.735Z,95899
2015-05-23T02:32:47.391Z,95896
2015-05-23T02:33:05.797Z,95899
2015-05-23T02:33:24.408Z,95899
2015-05-23T02:33:42.862Z,95905
2015-05-23T02:34:01.440Z,95911
2015-05-23T02:34:19.865Z,95899
2015-05-23T02:34:38.380Z,95911
2015-05-23T02:34:56.990Z,95902
2015-05-23T02:35:15.396Z,95905
2015-05-23T02:35:33.976Z,95908
2015-05-23T02:35:52.382Z,95914
2015-05-23T02:36:11.038Z,95902
2015-05-23T02:36:29.525Z,95902
2015-05-23T02:36:48.025Z,95914
2015-05-23T02:37:06.447Z,95911
2015-05-23T02:37:24.840Z,95914
2015-05-23T02:37:43.309Z,95914
2015-05-23T02:38:01.872Z,95908
2015-05-23T02:38:20.436Z,95902
2015-05-23T02:38:38.905Z,95916
2015-05-23T02:38:57.342Z,95908
2015-05-23T02:39:15.780Z,95902
2015-05-23T02:39:34.283Z,95902
2015-05-23T02:39:52.705Z,95908
2015-05-23T02:40:11.189Z,95900
2015-05-23T02:40:29.660Z,95905
2015-05-23T02:40:47.754Z,95908
2015-05-23T02:41:06.160Z,95905
2015-05-23T02:41:24.646Z,95911
2015-05-23T02:41:43.256Z,95908
2015-05-23T02:42:01.677Z,95908
2015-05-23T02:42:20.287Z,95903
2015-05-23T02:42:38.743Z,95908
2015-05-23T02:42:57.118Z,95908
2015-05-23T02:43:15.509Z,95900
2015-05-23T02:43:33.760Z,95911
2015-05-23T02:43:52.213Z,95906
2015-05-23T02:44:10.728Z,95900
2015-05-23T02:44:29.309Z,95900
2015-05-23T02:44:47.763Z,95894
2015-05-23T02:45:06.184Z,95900
2015-05-23T02:45:24.622Z,95903
2015-05-23T02:45:43.297Z,95903
2015-05-23T02:46:01.750Z,95903
2015-05-23T02:46:19.984Z,95892
2015-05-23T02:46:38.439Z,95901
2015-05-23T02:46:56.893Z,95904
2015-05-23T02:47:15.424Z,95901
2015-05-23T02:47:33.973Z,95904
2015-05-23T02:47:52.457Z,95895
2015-05-23T02:48:11.020Z,95904
2015-05-23T02:48:29.441Z,95898
2015-05-23T02:48:47.991Z,95893
2015-05-23T02:49:06.554Z,95893
2015-05-23T02:49:25.007Z,95893
2015-05-23T02:49:43.462Z,95895
2015-05-23T02:50:01.931Z,95898
2015-05-23T02:50:20.321Z,95904
2015-05-23T02:50:39.089Z,95893
2015-05-23T02:50:57.527Z,95896
2015-05-23T02:51:15.964Z,95901
2015-05-23T02:51:34.558Z,95893
2015-05-23T02:51:53.045Z,95898
2015-05-23T02:52:11.545Z,95899
2015-05-23T02:52:30.061Z,95899
2015-05-23T02:52:48.469Z,95893
2015-05-23T02:53:06.969Z,95890
2015-05-23T02:53:25.360Z,95893
2015-05-23T02:53:44.094Z,95893
2015-05-23T02:54:02.597Z,95904
2015-05-23T02:54:21.003Z,95899
2015-05-23T02:54:39.425Z,95899
2015-05-23T02:54:58.053Z,95901
2015-05-23T02:55:16.631Z,95896
2015-05-23T02:55:35.194Z,95901
2015-05-23T02:55:53.868Z,95899
2015-05-23T02:56:12.368Z,95888
2015-05-23T02:56:30.805Z,95899
2015-05-23T02:56:49.290Z,95893
2015-05-23T02:57:07.776Z,95902
2015-05-23T02:57:26.151Z,95905
2015-05-23T02:57:44.807Z,95899
2015-05-23T02:58:03.560Z,95896
2015-05-23T02:58:21.998Z,95896
2015-05-23T02:58:40.498Z,95899
2015-05-23T02:58:58.857Z,95896
2015-05-23T02:59:17.984Z,95893
2015-05-23T02:59:36.515Z,95902
2015-05-23T02:59:54.922Z,95902
2015-05-23T03:00:13.330Z,95896
2015-05-23T03:00:31.861Z,95896
2015-05-23T03:00:50.455Z,95905
2015-05-23T03:01:09.004Z,95879
2015-05-23T03:01:27.629Z,95885
2015-05-23T03:01:46.176Z,95891
2015-05-23T03:02:04.629Z,95893
2015-05-23T03:02:23.163Z,95896
2015-05-23T03:02:41.679Z,95896
2015-05-23T03:03:00.179Z,95891
2015-05-23T03:03:18.759Z,95885
2015-05-23T03:03:37.368Z,95893
2015-05-23T03:03:55.868Z,95891
2015-05-23T03:04:14.293Z,95888
2015-05-23T03:04:32.824Z,95888
2015-05-23T03:04:51.277Z,95885
2015-05-23T03:05:09.998Z,95893
2015-05-23T03:05:28.264Z,95891
2015-05-23T03:05:46.639Z,95891
2015-05-23T03:06:05.139Z,95885
2015-05-23T03:06:23.641Z,95885
2015-05-23T03:06:42.063Z,95885
2015-05-23T03:07:00.578Z,95890
2015-05-23T03:07:19.097Z,95896
2015-05-23T03:07:37.597Z,95893
2015-05-23T03:07:56.019Z,95890
2015-05-23T03:08:14.552Z,95885
2015-05-23T03:08:33.068Z,95888
2015-05-23T03:08:51.599Z,95885
2015-05-23T03:09:10.036Z,95885
2015-05-23T03:09:28.788Z,95888
2015-05-23T03:09:47.226Z,95890
2015-05-23T03:10:05.741Z,95890
2015-05-23T03:10:24.368Z,95893
2015-05-23T03:10:43.118Z,95876
2015-05-23T03:11:01.634Z,95887
2015-05-23T03:11:20.074Z,95890
2015-05-23T03:11:38.589Z,95887
2015-05-23T03:11:57.199Z,95884
2015-05-23T03:12:15.589Z,95884
2015-05-23T03:12:33.984Z,95893
2015-05-23T03:12:52.546Z,95884
2015-05-23T03:13:11.062Z,95887
2015-05-23T03:13:29.625Z,95890
2015-05-23T03:13:48.047Z,95890
2015-05-23T03:14:06.485Z,95893
2015-05-23T03:14:25.003Z,95881
2015-05-23T03:14:43.785Z,95890
2015-05-23T03:15:02.207Z,95884
2015-05-23T03:15:20.771Z,95884
2015-05-23T03:15:39.334Z,95881
2015-05-23T03:15:57.724Z,95889
2015-05-23T03:16:16.224Z,95878
2015-05-23T03:16:34.851Z,95889
2015-05-23T03:16:53.523Z,95884
2015-05-23T03:17:12.195Z,95878
2015-05-23T03:17:30.589Z,95889
2015-05-23T03:17:49.010Z,95884
2015-05-23T03:18:07.510Z,95881
2015-05-23T03:18:25.885Z,95875
2015-05-23T03:18:44.310Z,95878
2015-05-23T03:19:02.685Z,95884
2015-05-23T03:19:21.123Z,95887
2015-05-23T03:19:39.812Z,95881
2015-05-23T03:19:57.937Z,95884
2015-05-23T03:20:16.312Z,95881
2015-05-23T03:20:34.752Z,95881
2015-05-23T03:20:53.252Z,95878
2015-05-23T03:21:11.658Z,95878
2015-05-23T03:21:30.236Z,95892
2015-05-23T03:21:48.849Z,95886
2015-05-23T03:22:07.520Z,95878
2015-05-23T03:22:25.911Z,95889
2015-05-23T03:22:44.492Z,95881
2015-05-23T03:23:03.023Z,95881
2015-05-23T03:23:21.695Z,95878
2015-05-23T03:23:40.289Z,95889
2015-05-23T03:23:58.916Z,95884
2015-05-23T03:24:17.322Z,95889
2015-05-23T03:24:35.791Z,95884
2015-05-23T03:24:54.324Z,95895
2015-05-23T03:25:12.824Z,95881
2015-05-23T03:25:31.559Z,95895
2015-05-23T03:25:50.139Z,95887
2015-05-23T03:26:08.764Z,95887
2015-05-23T03:26:27.217Z,95887
2015-05-23T03:26:45.654Z,95889
2015-05-23T03:27:04.079Z,95889
2015-05-23T03:27:22.767Z,95884
2015-05-23T03:27:41.314Z,95889
2015-05-23T03:28:00.206Z,95889
2015-05-23T03:28:18.628Z,95887
2015-05-23T03:28:37.066Z,95884
2015-05-23T03:28:55.694Z,95884
2015-05-23T03:29:14.116Z,95892
2015-05-23T03:29:32.631Z,95889
2015-05-23T03:29:51.149Z,95881
2015-05-23T03:30:09.758Z,95887
2015-05-23T03:30:28.586Z,95881
2015-05-23T03:30:47.211Z,95892
2015-05-23T03:31:05.666Z,95887
2015-05-23T03:31:24.151Z,95881
2015-05-23T03:31:42.588Z,95881
2015-05-23T03:32:01.043Z,95889
2015-05-23T03:32:19.762Z,95881
2015-05-23T03:32:38.184Z,95881
2015-05-23T03:32:56.749Z,95875
2015-05-23T03:33:15.249Z,95881
2015-05-23T03:33:33.670Z,95878
2015-05-23T03:33:52.217Z,95881
2015-05-23T03:34:10.705Z,95875
2015-05-23T03:34:29.314Z,95881
2015-05-23T03:34:47.752Z,95878
2015-05-23T03:35:05.582Z,95875
2015-05-23T03:35:24.082Z,95889
2015-05-23T03:35:42.550Z,95869
2015-05-23T03:36:01.085Z,95881
2015-05-23T03:36:19.632Z,95881
2015-05-23T03:36:38.335Z,95892
2015-05-23T03:36:57.134Z,95872
2015-05-23T03:37:15.555Z,95881
2015-05-23T03:37:33.993Z,95892
2015-05-23T03:37:52.462Z,95875
2015-05-23T03:38:11.074Z,95872
2015-05-23T03:38:29.527Z,95875
2015-05-23T03:38:48.027Z,95878
2015-05-23T03:39:06.451Z,95889
2015-05-23T03:39:24.826Z,95875
2015-05-23T03:39:43.232Z,95878
2015-05-23T03:40:01.732Z,95878
2015-05-23T03:40:20.312Z,95892
2015-05-23T03:40:38.937Z,95878
2015-05-23T03:40:57.344Z,95883
2015-05-23T03:41:15.769Z,95875
2015-05-23T03:41:34.597Z,95878
2015-05-23T03:41:53.019Z,95869
2015-05-23T03:42:11.677Z,95875
2015-05-23T03:42:30.255Z,95875
2015-05-23T03:42:48.833Z,95878
2015-05-23T03:43:07.239Z,95883
2015-05-23T03:43:25.616Z,95880
2015-05-23T03:43:44.101Z,95889
2015-05-23T03:44:02.835Z,95875
2015-05-23T03:44:21.917Z,95881
2015-05-23T03:44:40.495Z,95878
2015-05-23T03:44:58.980Z,95883
2015-05-23T03:45:17.480Z,95883
2015-05-23T03:45:36.185Z,95878
2015-05-23T03:45:54.685Z,95883
2015-05-23T03:46:13.200Z,95878
2015-05-23T03:46:31.906Z,95880
2015-05-23T03:46:50.296Z,95880
2015-05-23T03:47:08.874Z,95878
2015-05-23T03:47:27.265Z,95878
2015-05-23T03:47:45.768Z,95883
2015-05-23T03:48:04.159Z,95886
2015-05-23T03:48:22.580Z,95880
2015-05-23T03:48:41.019Z,95886
2015-05-23T03:48:59.394Z,95889
2015-05-23T03:49:17.894Z,95889
2015-05-23T03:49:36.381Z,95886
2015-05-23T03:49:54.881Z,95892
2015-05-23T03:50:13.288Z,95889
2015-05-23T03:50:31.788Z,95886
2015-05-23T03:50:50.259Z,95889
2015-05-23T03:51:08.759Z,95883
2015-05-23T03:51:27.228Z,95883
2015-05-23T03:51:45.635Z,95889
2015-05-23T03:52:04.073Z,95898
2015-05-23T03:52:22.526Z,95889
2015-05-23T03:52:41.076Z,95889
2015-05-23T03:52:59.716Z,95889
2015-05-23T03:53:18.341Z,95892
2015-05-23T03:53:36.641Z,95889
2015-05-23T03:53:55.188Z,95892
2015-05-23T03:54:13.626Z,95897
2015-05-23T03:54:32.141Z,95883
2015-05-23T03:54:50.753Z,95897
2015-05-23T03:55:09.253Z,95886
2015-05-23T03:55:27.690Z,95892
2015-05-23T03:55:46.131Z,95889
2015-05-23T03:56:04.792Z,95892
2015-05-23T03:56:23.401Z,95892
2015-05-23T03:56:41.918Z,95889
2015-05-23T03:57:00.418Z,95892
2015-05-23T03:57:18.933Z,95886
2015-05-23T03:57:37.355Z,95892
2015-05-23T03:57:55.890Z,95892